KROW/ROW METAR and TAF weather

Enter ICAO airport designator
Station Type Date Time Source
KROW METAR 2021/02/27 02:51 UTC NOAA

KROW 270251Z 22004KT 10SM CLR 10/M09 A2986 RMK AO2 SLP096 T01001094 53011


Station Type Date Time Source
KROW Decoded METAR 2021/02/27 02:51 UTC NOAA

ROSWELL INDUSTRIAL AIR CENTR, NM, United States (KROW) 33-18N 104-32W 1112M
Feb 26, 2021 - 09:51 PM EST / 2021.02.27 0251 UTC
Wind: from the SW (220 degrees) at 5 MPH (4 KT):0
Visibility: 10 mile(s):0
Sky conditions: clear
Temperature: 50.0 F (10.0 C)
Dew Point: 15.1 F (-9.4 C)
Relative Humidity: 24%
Pressure (altimeter): 29.86 in. Hg (1011 hPa)
Pressure tendency: 0.03 inches (1.1 hPa) higher than three hours ago
ob: KROW 270251Z 22004KT 10SM CLR 10/M09 A2986 RMK AO2 SLP096 T01001094 53011
cycle: 3

Station Type Date Time Source
KROW TAF 2021/02/26 18:42 UTC NOAA

TAF KROW 261738Z 2618/2718 VRB06KT P6SM FEW250
FM262000 28009KT P6SM FEW250
FM270100 VRB06KT P6SM FEW250

Example: see airport list